switch

W tabeli znajdują się wszystkie najważniejsze informacje o kuponach; między innymi kwota rabatu, minimalna kota zakupu, liczba dostępnych kuponów. Dzięki kuponom możesz trafić na Aliexpress okazje niedostępne dla innych. Tabela jest posortowana według daty dodania kuponu do bazy, od najnowszych.

Aliexpress kupony– jak korzystać z tabeli?

W tabeli są następujące kolumny z kodami rabatowymi sklepów na Aliexpress:

Statystyki kuponów sprzedawców

Liczba kuponów w bazie: 41 573

Data dodania najnowszego kuponu: 2020-08-03 17:35:22

Ostatnia aktualizacja: 2020-08-03 20:11:05

Liczba dodanych dzisiaj: 157

Liczba zaktualizowanych dzisiaj: 1127

Liczba dodanych wczoraj: 421

Ładowanie kuponów...

Nazwa sklepu
+skopiuj
Kupon MKZ Procent Liczba Link i zdjęcie Link mobilny Dodano Zaktualizowano Najtańszy
+opłacalność
$2.00 $5.00 40% 98 Holder for Phone socket in car.... mobile. 17:35 20:05 ~$ 0.59 link

$1.00 $2.00 50% 200 Ordinary Cable USB C  Type C M.... mobile. 17:30 17:30 ~$ 0.59 link

$5.00 $5.01 100% 14 XIMISEN Men Slippers Casual Sh.... mobile. 17:05 20:06 ~$ 11.68 link

$5.00 $5.01 100% 3 XIMISEN Autumn High-top canvas.... mobile. 15:35 16:35 ~$ 11.68 link

$1.00 $1.01 99% 847 10MM Extra Thick 183cmX61cm Hi.... mobile. 11:28 20:07 ~$ 6.00 link

$5.00 $5.01 100% 2 XIMISEN classic Couple models .... mobile. 11:05 15:05 ~$ 11.68 link

$1.00 $1.01 99% 590 10MM Extra Thick 183cmX61cm Hi.... mobile. 10:32 13:03 ~$ 2.72 link

$2.00 $2.01 100% 95 Hand-held Laser Skin Depilator.... mobile. 10:05 20:03 ~$ 11.25 link

$1.00 $1.01 99% 100 Women Shoes Fashion Canvas Wom.... mobile. 09:54 09:54 ~$ 7.90 link

$2.00 $2.01 100% 500 women Summer Beach Flip flops .... mobile. 09:54 09:54 ~$ 8.98 link

$2.00 $2.01 100% 1000 Summer Men Loafers Metal Buckl.... mobile. 09:54 09:54 nie zeskanowano
$1.00 $1.01 99% 199 Handbag Women's Big Bag Fashio.... mobile. 09:54 09:54 ~$ 11.08 link

$2.00 $2.01 100% 178 Lucky 3D Printing Unicorn Flam.... mobile. 09:53 09:53 ~$ 10.99 link

$1.00 $1.01 99% 10000 Women's New Fashion Letter Bad.... mobile. 09:53 09:53 ~$ 12.82 link

$1.00 $1.01 99% 969 NEW Men Credit card holder car.... mobile. 09:53 09:53 ~$ 1.70 link

$2.00 $2.01 100% 100 RUISHISASBER Anti Theft USB Ch.... mobile. 09:52 09:52 ~$ 26.60 link

$1.00 $1.01 99% 40 Fashion Man Beach Mesh Sandals.... mobile. 09:52 09:52 ~$ 6.10 link

$3.00 $3.01 100% 29 Fashion Women Bags Famous Bran.... mobile. 09:50 09:50 ~$ 0.50 link

$3.00 $3.01 100% 49 Pay Extra Fee for Shipping Or .... mobile. 09:50 10:03 ~$ 0.10 link

$2.00 $2.01 100% 4986 Odetina Women Fashion Snakeski.... mobile. 09:50 10:33 ~$ 1.00 link

$1.00 $1.01 99% 9998 TR90 Lightweight Gold Green Br.... mobile. 09:50 09:50 ~$ 9.18 link

$1.00 $1.01 99% 4962 Women Pointed Toe Slippers Sli.... mobile. 09:49 10:02 ~$ 14.50 link

$1.00 $1.01 99% 6657 TOPHIGH  Python  A4 Big Capaci.... mobile. 09:49 10:02 ~$ 1.00 link

$1.00 $1.01 99% 496 Breathable Knitted Sneakers Wo.... mobile. 09:48 09:48 ~$ 7.04 link

$1.00 $1.01 99% 3994 Fashion Women Ankle Boots Chel.... mobile. 09:48 10:00 ~$ 15.68 link

$1.00 $1.01 99% 52 Gold Color Copper Mirco Pave B.... mobile. 09:46 09:46 ~$ 0.29 x 100 link

$1.00 $1.01 99% 9968 Winter Cotton Hooded Cardigan .... mobile. 09:44 09:44 ~$ 0.80 x 5 link

$30.00 $100.00 30% 1000 Bridal Veil Single Layer Lace .... mobile. 09:44 09:44 ~$ 0.07 link

$1.00 $1.01 99% 995 new fashion girl summer knitte.... mobile. 09:44 09:44 ~$ 11.44 link

$2.00 $2.01 100% 98 Globe hot sale  110V/220V PS-1.... mobile. 09:44 09:44 ~$ 0.50 link

$1.00 $1.01 99% 293 Autumn Woman Pants Side Stripe.... mobile. 09:44 09:44 ~$ 8.26 link

$1.00 $1.01 99% 998 2020 New Spring Women Jumpers .... mobile. 09:43 09:43 ~$ 6.36 link

$2.00 $2.01 100% 1000 2020 New13 Men Basketball Shoe.... mobile. 09:43 09:43 ~$ 31.24 link

$1.00 $1.01 99% 297 DDWW The Sleeping Woman Pictur.... mobile. 09:43 09:54 ~$ 3.16 link

$1.00 $1.01 99% 1927 Necklace Custom Jewelry Cursiv.... mobile. 09:43 09:43 ~$ 7.17 link

$1.00 $1.01 99% 99 Elastic knee pads, outdoor spo.... mobile. 09:43 09:43 ~$ 1.71 x 5 link

$5.00 $6.00 83% 1000 Sleeping Pad Ultralight Foam C.... mobile. 09:43 09:43 ~$ 10.00 link

$1.00 $1.01 99% 50 Camping Cookware Ultralight Ta.... mobile. 09:43 09:43 ~$ 20.26 link

$1.00 $1.01 99% 50 Fitness T-Shirt Sport Crop Top.... mobile. 09:43 09:43 ~$ 8.19 link

$3.00 $3.01 100% 98 LINNHUE Fishing Box For Baits .... mobile. 09:43 09:43 ~$ 15.58 link

$10.00 $10.01 100% 47 Urban Drift Yonos Powerful Adu.... mobile. 09:43 09:43 ~$ 255.64 link

$1.00 $1.01 99% 9945 Fashion Big Sunglasses for Men.... mobile. 09:43 09:56 ~$ 2.40 link

$1.00 $1.01 99% 9962 Jumbo Braiding Hair Ombre Synt.... mobile. 09:43 09:43 ~$ 1.06 link

$1.00 $1.01 99% 97 Suzakoo 1pcs Squash racket bal.... mobile. 09:43 09:43 ~$ 0.84 x 20 link

$1.00 $1.01 99% 9917 WMARK NG-201 7000 RPM Zero-cut.... mobile. 09:42 09:54 ~$ 5.53 link

$1.00 $1.01 99% 989 24 inch/100g Kanekalon Braidin.... mobile. 09:42 09:42 ~$ 0.43 link

$2.00 $2.01 100% 3000 Smart Watch 2020 Wearable Devi.... mobile. 09:42 09:54 ~$ 23.02 link

$1.00 $1.01 99% 50 Montessori Educational Toys fo.... mobile. 09:42 09:54 ~$ 2.63 link

$1.00 $1.01 99% 49997 Sexy One Piece Swim Suits Badp.... mobile. 09:42 20:05 ~$ 12.78 link

$2.00 $2.01 100% 999 Prettylove Single Speed Silico.... mobile. 09:42 09:42 ~$ 2.99 link

$3.00 $3.01 100% 196 Long Dress Top Quality Sexy Lo.... mobile. 09:42 09:42 ~$ 1.00 link

$1.00 $1.01 99% 96 Women Tennis Shoes Tenis Femin.... mobile. 09:42 09:42 ~$ 7.48 link

$1.00 $1.01 99% 98 New T11 Bluetooth headset V5.0.... mobile. 09:42 09:54 ~$ 13.86 link

$2.00 $5.00 40% 4000 Beeshum Baby Boy Bib Waterproo.... mobile. 09:42 09:54 ~$ 1.16 link

$2.00 $2.01 100% 97 110v/220v ultrasonic cleaner h.... mobile. 09:42 09:53 ~$ 1.00 link

$3.00 $3.01 100% 99 Genuine PT Diesel fuel injecto.... mobile. 09:41 09:41 ~$ 75.00 link

$1.00 $1.01 99% 188 Car Wiper Blade for Mazda 3 Ma.... mobile. 09:41 09:41 ~$ 10.80 link

$1.00 $1.01 99% 699 For BM W X5 E53 E39 1999 2000 .... mobile. 09:41 09:41 ~$ 55.98 link

$5.00 $5.01 100% 99 Marshell LC2171 6A 12V  Car Ba.... mobile. 09:41 09:41 ~$ 18.99 link

$1.00 $1.01 99% 990 220v EU Plug Mini Travel Ceram.... mobile. 09:41 09:55 ~$ 1.67 x 5 link

$1.00 $1.01 99% 50000 Automatic Voltage Switcher AVS.... mobile. 09:41 10:03 ~$ 18.75 link

$2.00 $2.01 100% 999 Bright Headlight Bulbs Convers.... mobile. 09:41 10:03 ~$ 1.00 link

$1.00 $1.01 99% 500 Olysine 4G Android 8.1 Car DVR.... mobile. 09:41 20:07 ~$ 13.50 link

$2.00 $2.01 100% 4996 1:20 RC Car Machines On The Ra.... mobile. 09:41 10:03 ~$ 1.50 x 4 link

$1.00 $1.01 99% 47 Brand Bullet Vibrator,Vibrator.... mobile. 09:40 09:55 ~$ 0.35 x 2 link

$1.00 $1.01 99% 9995 2020 One Piece Swimsuit MAID O.... mobile. 09:40 20:03 ~$ 1.00 link

$1.00 $1.01 99% 9963 New 2020 Tws Wireless Headphon.... mobile. 09:40 10:02 ~$ 1.00 link

$2.00 $2.01 100% 97 Logitech B525 Full HD 1080P C5.... mobile. 09:40 09:55 ~$ 32.99 link

$1.00 $1.01 99% 9585 Amtivaya Plus Size Alarge Wome.... mobile. 09:40 10:02 ~$ 2.97 link

$1.00 $1.01 99% 44 New High Quality 100% Cotton M.... mobile. 09:40 10:02 ~$ 6.50 link

$1.00 $1.01 99% 2985 New! Mini Portabl O3 Generator.... mobile. 09:40 10:02 ~$ 21.32 link

$1.00 $1.01 99% 1999 Quick-drying Leggings 2020 Wom.... mobile. 09:40 10:02 ~$ 9.80 link

$1.00 $1.01 99% 74 Men Women Running Phone Bags W.... mobile. 09:39 10:02 ~$ 0.69 link

$2.00 $2.01 100% 287 Men‘s New America hockey jer.... mobile. 09:39 10:02 ~$ 19.98 link

$1.00 $1.01 99% 91 2020 Hot Sale Pokemon Cards Vm.... mobile. 09:39 10:02 ~$ 2.29 link

$2.00 $2.01 100% 50 HP original BCM943228HMB dual-.... mobile. 09:39 09:55 ~$ 20.09 link

$1.00 $1.01 99% 196 OR19 AGC Mini Optical Receiver.... mobile. 09:39 10:01 ~$ 0.20 x 200 link

$3.00 $3.01 100% 99 2020 Spring Summer New Hot Wom.... mobile. 09:39 10:01 ~$ 9.75 link

$1.00 $1.01 99% 49 Middle-aged and Elderly Women'.... mobile. 09:39 10:01 ~$ 8.86 link

$1.00 $1.01 99% 4998 GOGONI 2020 New Arrivals 2Pcs .... mobile. 09:39 10:01 ~$ 7.01 link

$1.00 $1.01 99% 50 Baby Shaping Pillow Prevent Fl.... mobile. 09:38 10:01 ~$ 4.99 link

$1.00 $1.01 99% 9991 2019 Spring kids clothes for g.... mobile. 09:38 20:02 ~$ 2.00 link

$1.00 $1.01 99% 183 G30 Gyro Wireless Fly Air Mous.... mobile. 09:38 09:51 ~$ 5.60 link

$3.00 $3.01 100% 39 XIMISEN Sneakers Men Shoes Spr.... mobile. 09:37 10:00 ~$ 11.68 link

$1.00 $2.00 50% 189 Running Jacket Women Long Slee.... mobile. 09:37 10:01 ~$ 9.37 link

$1.00 $1.01 99% 99931 Tool Sets For MECHANIC 5111 Gl.... mobile. 09:37 10:01 ~$ 0.01 link

$1.00 $1.01 99% 500 Parking Sensors 89341-50060 fo.... mobile. 09:37 09:37 ~$ 0.04 x 500 link

$1.00 $1.01 99% 285 Cotton Panties Women 3pcs/Lot .... mobile. 09:37 09:48 ~$ 1.14 x 3 link

$1.00 $1.01 99% 1000 Women Seamless yoga set Fitnes.... mobile. 09:37 09:53 ~$ 8.99 link

$1.00 $1.01 99% 497 Summer Skirts Women Casual Sol.... mobile. 09:37 09:48 ~$ 13.58 link

$1.00 $2.00 50% 496 Women Summer Beach Travel Bowk.... mobile. 09:37 10:01 ~$ 1.28 link

$1.00 $1.01 99% 992 For Hyundai Solaris 2011-2016 .... mobile. 09:37 10:00 ~$ 6.16 link

$2.00 $6.00 33% 964 Logitech G102 IC PRODIGY Gamin.... mobile. 09:37 09:53 ~$ 5.31 link

$1.00 $1.01 99% 9985 Men's running t-shirts, quick-.... mobile. 09:36 09:53 ~$ 7.78 link

$1.00 $2.00 50% 9968 LEVORYEOU SUV TOP Car Inflatab.... mobile. 09:36 09:53 ~$ 3.99 link

$2.00 $2.01 100% 4997 Autumn Winter New Imitation Fo.... mobile. 09:36 10:00 ~$ 18.40 link

$5.00 $5.01 100% 965 GORTAT 29 inch Mountain Bike A.... mobile. 09:36 10:33 ~$ 1.00 link

$1.00 $1.01 99% 62 10Pcs/pack Jewelry Box Wine Wo.... mobile. 09:36 10:02 ~$ 0.91 link

$1.00 $1.01 99% 279 Huepar Laser Stand Laser Level.... mobile. 09:36 09:48 ~$ 6.65 link

$1.00 $1.01 99% 9960 2X Philips H7 12V 55W PX26d Di.... mobile. 09:36 09:36 ~$ 2.22 x 10 link

$1.00 $1.01 99% 197 Case for samsung galaxy tab S6.... mobile. 09:36 20:05 ~$ 1.99 link

$1.00 $1.01 99% 975 Anime JoJo's Bizarre Nendoroid.... mobile. 09:36 10:00 ~$ 3.79 link

$3.00 $3.01 100% 44 regulation, pressurization, wa.... mobile. 09:36 09:51 ~$ 3.50 x 2 link

$2.00 $2.01 100% 457 HIKVISION HikStorage Micro SD .... mobile. 09:35 09:52 ~$ 3.03 link

$2.00 $2.01 100% 124 Lace Front Human Hair Wigs Str.... mobile. 09:22 19:53 ~$ 14.00 link

$1.00 $1.01 99% 479 New Stripe Knee-high Socks Wom.... mobile. 09:04 20:02 ~$ 9.49 link

$2.00 $2.01 100% 989 Photography LED Selfie Ring Li.... mobile. 09:03 09:32 ~$ 0.01 link

$2.00 $2.01 100% 193 Coulomb Princess Flowers Backp.... mobile. 09:01 20:02 ~$ 6.58 link

$1.00 $1.01 99% 46 WOTTE Summer Slippers Men Micr.... mobile. 09:01 20:07 ~$ 5.17 link

$2.00 $2.01 100% 2998 Eyeshadow Palette Eye Shadow G.... mobile. 08:03 18:03 ~$ 0.99 link

$2.00 $2.01 100% 1990 African Mermaid Bridesmaid Dre.... mobile. 08:03 20:03 ~$ 0.92 x 20 link

$2.00 $2.01 100% 9969 Upgraded Ortur-YRR Automatic R.... mobile. 08:03 20:03 ~$ 1.00 link

$2.00 $2.01 100% 499 2 Size Round Sharp Lightsaber .... mobile. 08:03 13:03 ~$ 1.00 link

$1.00 $1.01 99% 990 Rhinestone Wedding Hair Access.... mobile. 08:03 20:03 ~$ 9.60 link

$1.00 $1.01 99% 48 QDKPOTC 2020 New Hat Spring Su.... mobile. 08:02 20:03 ~$ 5.32 link

$1.00 $1.01 99% 4993 The First Layer Of Cowhide Smo.... mobile. 08:01 20:07 ~$ 10.35 link

$1.00 $1.01 99% 81 ACS-2 8-28.6mm Fiber Optic Arm.... mobile. 07:42 20:00 ~$ 0.01 link

$1.00 $1.01 99% 982 LARNMERN SRC non-slip Work Saf.... mobile. 07:41 20:10 ~$ 19.30 link

$1.00 $1.01 99% 990 2020 Men Suede Loafers Shoes T.... mobile. 07:40 20:10 ~$ 11.00 link

$2.00 $2.01 100% 996 Mobile phone charging board 15.... mobile. 07:35 20:07 ~$ 19.24 link

$1.00 $1.01 99% 1817 MALEMONKEY 1082 Ladies Sandals.... mobile. 07:35 20:09 ~$ 37.90 link

$1.00 $1.01 99% 97 32A EV Charging Cable Plug SAE.... mobile. 07:35 20:06 ~$ 53.91 link

$2.00 $2.01 100% 990 White / Black ABS Rearview Mir.... mobile. 07:34 20:09 ~$ 25.00 link

$2.00 $2.01 100% 4868 Free Shipping DC 12V 2A Power .... mobile. 07:34 20:09 ~$ 0.10 link

$2.00 $2.01 100% 194 Europe station 2019 new air cu.... mobile. 07:33 20:03 ~$ 57.00 link

$1.00 $1.01 99% 9784 WMARK NG-108 new Limited Editi.... mobile. 07:33 20:02 ~$ 1.80 x 10 link

$2.00 $2.01 100% 93 Cute Cartoon Giraffe Doll Toy .... mobile. 07:33 20:03 ~$ 2.46 link

$1.00 $1.01 99% 993 100% original 6s3p 25.2v 18Ah .... mobile. 07:33 20:07 ~$ 13.41 link

$1.00 $3.00 33% 84 Fashion Women Men's Stainless .... mobile. 07:33 20:05 ~$ 0.20 x 24 link

$3.00 $8.00 38% 3000 Mummy Maternity Nappy Bag Larg.... mobile. 07:33 20:01 ~$ 10.74 link

$1.00 $1.01 99% 995 Steampunk Sunglasses Men Pilot.... mobile. 07:33 19:33 ~$ 7.54 link

$3.00 $3.01 100% 176 Petrified fish  D2 steel foldi.... mobile. 07:33 20:10 ~$ 17.99 link

$2.00 $3.00 67% 1000 Flysky iA10B 10CH Dual Antenna.... mobile. 07:32 20:08 ~$ 14.39 link

$1.00 $1.01 99% 81 CDPUNDARI Pointed Toe Over the.... mobile. 07:32 20:02 ~$ 17.78 link

$1.00 $1.01 99% 443 NAKKESHMEN-2020Winter Leather .... mobile. 07:32 20:02 ~$ 7.92 link

$1.00 $1.01 99% 995 Men Dress Shoes Handmade Brogu.... mobile. 07:32 20:08 ~$ 10.80 link

$1.00 $1.01 99% 9993 Cross-border anti-magnetic ant.... mobile. 07:32 20:07 ~$ 3.34 link

$2.00 $2.01 100% 90 New Cross Body Cell Phone Purs.... mobile. 07:32 20:08 ~$ 11.93 link

$1.00 $1.01 99% 991 Cotton autumn active casual ca.... mobile. 07:32 20:08 ~$ 5.94 link

$1.00 $1.01 99% 9978 XENCN 12277C1 12V 13W P13W PG1.... mobile. 07:32 20:03 ~$ 0.99 x 10 link

$2.00 $5.00 40% 190 All kinds of vegetables Diamon.... mobile. 07:32 13:07 ~$ 1.98 x 5 link

$1.00 $1.01 99% 994 Electric Fast Heating Hair Fla.... mobile. 07:32 20:07 ~$ 2.66 x 10 link

$1.00 $1.01 99% 2813 Demon Slayer Kimetsu no Yaiba .... mobile. 07:31 20:03 ~$ 1.89 link

$1.00 $1.01 99% 9936 Eihort Breathable Running Shoe.... mobile. 07:31 20:06 ~$ 7.95 link

$5.00 $5.01 100% 4986 QIUCHEN NEW ARRIVAL  Fashion G.... mobile. 07:31 20:06 ~$ 1.00 link

$10.00 $10.01 100% 9987 SoAyle Green Evening Dress 202.... mobile. 07:31 20:07 ~$ 8.69 link

$1.00 $1.01 99% 992 2 piece  High Quality 18-Inch .... mobile. 07:31 20:03 ~$ 0.11 x 100 link

$1.00 $1.01 99% 299 5.15For Huawei honor 9 STF-L0.... mobile. 07:30 20:05 ~$ 0.44 x 50 link

$1.00 $1.01 99% 936 Japanese sweet lolita dress vi.... mobile. 07:30 19:33 ~$ 6.74 link

$1.00 $3.00 33% 500 1pcs New Makeup Powder Brush F.... mobile. 07:30 20:07 ~$ 0.75 link

$1.00 $1.01 99% 982 New Women casual harem pants h.... mobile. 07:30 20:06 ~$ 0.45 x 40 link

$1.00 $1.01 99% 138 Women Boots Shoes Martin Boots.... mobile. 07:30 20:06 ~$ 5.61 link

$1.00 $1.01 99% 997 Men Formal Men's Business Dres.... mobile. 07:30 20:09 ~$ 14.58 link

$1.00 $1.01 99% 9889 Women Winter Rabbit Cartoon Sl.... mobile. 07:30 20:05 ~$ 5.33 x 2 link

$5.00 $5.01 100% 40 XIMISEN 2020 New Arrival Summe.... mobile. 07:13 08:35 ~$ 11.68 link

$5.00 $5.01 100% 43 XIMISEN Men Slippers Casual Sh.... mobile. 03:22 07:02 ~$ 11.68 link

$1.00 $1.01 99% 11 2019 New Native Nekopara Choco.... mobile. 02:02 08:32 ~$ 0.40 link

$7.00 $7.01 100% 1484 2020 Summer women jelly shoes .... mobile. 2020-08-02 22:34 2020-08-02 ~$ 5.40 link

$1.00 $1.01 99% 70 2020 Summer Cotton 2pcs Sets S.... mobile. 2020-08-02 22:33 2020-08-02 ~$ 0.28 link

$5.00 $5.01 100% 44 XIMISEN classic Couple models .... mobile. 2020-08-02 21:14 03:13 ~$ 11.68 link

$1.00 $1.01 99% 158 Newest Bluetooth Earphone Wire.... mobile. 2020-08-02 20:26 10:03 ~$ 8.91 link

$5.00 $5.01 100% 24 XIMISEN sell well Men Casual C.... mobile. 2020-08-02 18:00 2020-08-02 ~$ 11.68 link

$1.00 $1.01 99% 995 Men's Cycling Jersey Short Sle.... mobile. 2020-08-02 13:53 09:56 ~$ 16.20 link

$1.00 $1.01 99% 1193 Sweet Bow Lolita Shoes Mary Ja.... mobile. 2020-08-02 13:42 01:03 ~$ 5.40 link

$1.00 $1.01 99% 98 Trapezoid Sexy Mini Stone Patt.... mobile. 2020-08-02 13:42 09:54 ~$ 8.49 link

$1.00 $1.01 99% 47 Attolia - Nivox - Genuine Leat.... mobile. 2020-08-02 13:42 09:54 ~$ 28.00 link

$1.00 $1.01 99% 99 Fashion 2020 Hot Summer Ladies.... mobile. 2020-08-02 13:42 09:54 ~$ 24.92 link

$1.00 $1.01 99% 199 Vinapobo Sports Shoes Men Wome.... mobile. 2020-08-02 13:42 20:06 ~$ 17.99 link

$1.00 $1.01 99% 95 2020 New  fashionable and vers.... mobile. 2020-08-02 13:41 09:54 ~$ 17.33 link

$1.00 $1.01 99% 994 2020 New Women vulcanized snea.... mobile. 2020-08-02 13:41 09:54 ~$ 12.49 link

$2.00 $2.01 100% 663 Girl's Pure Cotton Small Flowe.... mobile. 2020-08-02 13:41 09:54 ~$ 4.06 link

$1.00 $1.01 99% 496 Keshangjia new sexy women's si.... mobile. 2020-08-02 13:41 09:54 ~$ 7.10 link

$2.00 $2.01 100% 292 Color Mix Breathable Walk Casu.... mobile. 2020-08-02 13:41 09:54 ~$ 6.00 link

$1.00 $1.01 99% 638 Hot Fashion Women Watch High Q.... mobile. 2020-08-02 13:41 13:06 ~$ 1.00 link

$2.00 $2.01 100% 98 Large Size 33~43 Printed Flowe.... mobile. 2020-08-02 13:41 09:53 ~$ 9.58 link

$1.00 $1.01 99% 9995 ZALAVOR Women Ankle Boots Warm.... mobile. 2020-08-02 13:40 09:53 ~$ 8.00 link

$1.00 $1.01 99% 993 High Quality Genuine Leather B.... mobile. 2020-08-02 13:40 09:53 ~$ 3.99 link

$3.00 $3.01 100% 9990 CONASCO Women Sandals Fashion .... mobile. 2020-08-02 13:40 09:53 ~$ 13.78 link

$1.00 $1.01 99% 2292 2019 Summer new fashion retro .... mobile. 2020-08-02 13:40 09:53 ~$ 8.52 link

$3.00 $3.01 100% 195 NIKOVE 2018 Women Sandals Roun.... mobile. 2020-08-02 13:40 09:53 ~$ 4.94 link

$1.00 $1.01 99% 987 2020 Summer Women  mobile Oxfo.... mobile. 2020-08-02 13:40 20:06 ~$ 7.15 link

$2.00 $2.01 100% 7997 Batzuzhi 7CM High Heels Men Bo.... mobile. 2020-08-02 13:40 09:53 ~$ 20.29 link

$2.00 $2.01 100% 994 Earbuds Coin Purse Fashion Sho.... mobile. 2020-08-02 13:40 20:06 ~$ 12.32 link

$1.00 $1.01 99% 788 Suit Collar Double-breasted Pl.... mobile. 2020-08-02 13:40 09:42 ~$ 0.61 link

$2.00 $3.00 67% 467 Latest Miyake Women dress 2019.... mobile. 2020-08-02 13:40 20:01 ~$ 1.42 x 25 link

$1.00 $1.01 99% 953 White Hidden Wedge Heels sneak.... mobile. 2020-08-02 13:40 20:02 ~$ 3.73 link

$1.00 $1.01 99% 968 Size 38-44 Men Casual Shoes 20.... mobile. 2020-08-02 13:40 09:52 ~$ 9.20 link

$1.00 $1.01 99% 190 2019 Fashion Platform Sneakers.... mobile. 2020-08-02 13:40 09:52 ~$ 10.07 link

$1.00 $1.01 99% 98 2020 AJ4 Men's Vulcanized Shoe.... mobile. 2020-08-02 13:40 09:52 ~$ 13.00 link

$1.00 $1.01 99% 980 Hot Clip-on Square Toe High He.... mobile. 2020-08-02 13:39 10:33 ~$ 0.72 link

$1.00 $1.01 99% 67 Brand Men Casual Shoes Outdoor.... mobile. 2020-08-02 13:39 20:03 ~$ 10.58 link

$2.00 $2.01 100% 96 Saudi style Genuine Leather Th.... mobile. 2020-08-02 13:39 09:50 ~$ 5.89 link

$5.00 $5.01 100% 289 New winter western boots men a.... mobile. 2020-08-02 13:39 10:03 ~$ 14.00 link

$8.00 $8.01 100% 1875 2020 Summer Mother Shoes Women.... mobile. 2020-08-02 13:39 2020-08-02 ~$ 5.40 link

$2.00 $2.01 100% 1925 Stone Pattern Small Square Bag.... mobile. 2020-08-02 13:39 10:03 ~$ 10.35 link

$5.00 $5.01 100% 92 Leather Formal Business Oxford.... mobile. 2020-08-02 13:38 10:02 ~$ 17.00 link

$2.00 $2.01 100% 486 HARAVAL New Brand Women Slippe.... mobile. 2020-08-02 13:38 20:06 ~$ 27.90 link

$5.00 $5.01 100% 295 Summer sandals men's fashion s.... mobile. 2020-08-02 13:38 10:02 ~$ 41.99 link

$1.00 $1.01 99% 1989 Women's canvas boots 2019 Spri.... mobile. 2020-08-02 13:38 20:06 ~$ 13.42 link

$1.00 $1.01 99% 973 2019 New Summer Men's Casual S.... mobile. 2020-08-02 13:38 10:02 ~$ 0.77 link

$1.00 $1.01 99% 193 Shoes Women glitter crystal Sl.... mobile. 2020-08-02 13:38 10:01 ~$ 23.31 link

$1.00 $1.01 99% 4962 New air cushion shoes breathab.... mobile. 2020-08-02 13:38 10:01 ~$ 9.66 link

$5.00 $6.00 83% 293 big Bags Genuine Leather handb.... mobile. 2020-08-02 13:38 10:01 ~$ 58.45 link

$1.00 $1.01 99% 1886 2019 New Concise Patent Leathe.... mobile. 2020-08-02 13:38 10:01 ~$ 7.79 link

$1.00 $1.01 99% 2434 Martin boots women 2019 winter.... mobile. 2020-08-02 13:38 10:01 ~$ 16.03 link

$1.00 $1.01 99% 99 Korean version of denim canvas.... mobile. 2020-08-02 13:38 10:01 ~$ 9.42 link

$1.00 $1.01 99% 4858 2020 New Summer Women's Sandal.... mobile. 2020-08-02 13:38 10:01 ~$ 16.49 link

$1.00 $1.01 99% 629 2020 New genuine leather High .... mobile. 2020-08-02 13:37 10:01 ~$ 18.85 link

$3.00 $3.01 100% 9992 VERCONAS Women Genuine Leather.... mobile. 2020-08-02 13:37 20:07 ~$ 20.14 link

$1.00 $1.01 99% 194 2020 Women Fashion Wild Beach .... mobile. 2020-08-02 13:37 09:55 ~$ 3.54 link

$1.00 $1.01 99% 72 Fashion Bow Strap Shoulder Bag.... mobile. 2020-08-02 13:37 09:48 ~$ 7.64 link

$3.00 $3.01 100% 9990 COVIBESCO Sexy Fashion Genuine.... mobile. 2020-08-02 13:37 09:48 ~$ 29.64 link

$1.00 $1.01 99% 2996 Men Sneakers Fashion Mens Casu.... mobile. 2020-08-02 13:37 20:03 ~$ 10.63 link

$1.00 $1.01 99% 492 Muzee Men Canvas Waist bag Pac.... mobile. 2020-08-02 13:37 09:48 ~$ 7.83 link

$1.00 $1.01 99% 4994 Men's Casual Shoes Men's Shoes.... mobile. 2020-08-02 13:37 10:01 ~$ 7.84 link

$5.00 $5.01 100% 291 Ankle Boots Dress Shoes Men Sl.... mobile. 2020-08-02 13:37 10:01 ~$ 93.50 link

$1.00 $1.01 99% 492 Mazzy Star New School Fashion .... mobile. 2020-08-02 13:37 10:01 ~$ 5.88 link

$4.00 $11.00 36% 1251 Fashion Men Polarized Sunglass.... mobile. 2020-08-02 13:35 09:50 ~$ 0.76 link

$2.00 $2.01 100% 452 Hot Cute FIRST CLASS PLANE TIC.... mobile. 2020-08-02 13:35 20:06 ~$ 0.80 link

$3.00 $10.00 30% 4998 Exaggerated Multi-layer Chains.... mobile. 2020-08-02 13:35 13:07 ~$ 0.99 link

$20.00 $20.01 100% 923 CIGA DESIGN CIGA Quartz Watch .... mobile. 2020-08-02 13:35 09:49 ~$ 1.00 link

$1.00 $1.01 99% 32 Stainless Steel Wire Bracelets.... mobile. 2020-08-02 13:33 09:48 ~$ 1.58 x 10 link

$1.00 $3.00 33% 90 Lancard Bronze Customized To M.... mobile. 2020-08-02 13:33 00:01 ~$ 0.16 link

$8.00 $20.00 40% 997 Women Anti Chafing Thigh Band .... mobile. 2020-08-02 13:33 2020-08-02 ~$ 0.01 link

$1.00 $1.01 99% 499 Vintage 50s Elegant Women A-li.... mobile. 2020-08-02 13:33 2020-08-02 ~$ 19.35 link

$2.00 $2.01 100% 883 Robe De Soiree 2019 Empire Mer.... mobile. 2020-08-02 13:33 2020-08-02 ~$ 14.95 link

$2.00 $6.00 33% 5997 New Punk Style Retro Vintage W.... mobile. 2020-08-02 13:33 09:46 ~$ 0.87 link

$2.00 $5.00 40% 985 Anti Friction Lace Thigh Bands.... mobile. 2020-08-02 13:33 20:07 ~$ 0.80 x 2 link

$1.00 $1.01 99% 983 MartinPOLO Men's Genuine Leath.... mobile. 2020-08-02 13:33 10:02 ~$ 18.20 link

$1.00 $1.01 99% 41 CINESSD Striped Patchwork Butt.... mobile. 2020-08-02 13:33 20:02 ~$ 6.00 link

$5.60 $11.20 50% 993 Mishow  Autumn Winter Women's .... mobile. 2020-08-02 13:33 09:44 nie zeskanowano
$1.00 $1.01 99% 91 Kigurumi stitch long sleeve ho.... mobile. 2020-08-02 13:33 09:46 ~$ 0.55 link

$1.00 $1.01 99% 49988 WUHE Women Summer Short Sleeve.... mobile. 2020-08-02 13:33 07:27 ~$ 9.52 link

$1.00 $1.01 99% 84 X-Long 2020 New Big Fur Fashio.... mobile. 2020-08-02 13:33 09:44 ~$ 7.92 link

$1.00 $1.01 99% 498 Spring decoration high collar .... mobile. 2020-08-02 13:33 2020-08-02 ~$ 6.29 link

$3.00 $3.01 100% 99886 Original Unlocked iPhone 11  T.... mobile. 2020-08-02 13:32 2020-08-02 ~$ 113.60 link

$8.00 $20.00 40% 987 1 Pair Women Leg Warmers Anti .... mobile. 2020-08-02 13:32 09:44 ~$ 0.01 link

$1.00 $1.01 99% 82 metaabl 12 Rolls 82ft Baby Blu.... mobile. 2020-08-02 13:32 09:46 ~$ 0.01 x 8000 link

$2.00 $2.01 100% 489 Summer Dresses Women Floral Pr.... mobile. 2020-08-02 13:32 09:44 ~$ 10.87 link

$1.00 $1.01 99% 91 Fashion men camouflage jacket .... mobile. 2020-08-02 13:32 10:33 ~$ 1.00 link

$1.00 $1.01 99% 5974 High Quality Women Plus Size S.... mobile. 2020-08-02 13:32 20:07 ~$ 10.70 link

$2.00 $2.01 100% 1997 Fiklyc New Pajamas Women's Spr.... mobile. 2020-08-02 13:32 09:44 ~$ 8.16 link

$1.00 $1.01 99% 281 2017 Summer New Large size jea.... mobile. 2020-08-02 13:32 20:06 ~$ 3.51 link

$1.00 $1.01 99% 792 TUHAO  Womens Tops and Blouses.... mobile. 2020-08-02 13:32 09:43 ~$ 0.55 link

$1.00 $1.01 99% 100 2020 fancy men sport ankle soc.... mobile. 2020-08-02 13:32 2020-08-02 ~$ 2.51 x 5 link

$1.00 $1.01 99% 297 Summer Lace Patchwork T Shirt .... mobile. 2020-08-02 13:32 20:05 ~$ 8.49 link

$1.00 $1.01 99% 496 Effective Skin Tag Remover Pen.... mobile. 2020-08-02 13:32 13:05 ~$ 9.27 link

$7.00 $7.01 100% 990 400-3300r/min Electric Muscle .... mobile. 2020-08-02 13:32 09:43 ~$ 44.51 link

$1.00 $1.01 99% 999 Winter Women Outerwear 2018 Ne.... mobile. 2020-08-02 13:32 09:43 ~$ 12.36 link

$1.00 $1.01 99% 9997 Ralvpha 2020 Summer Pro Team N.... mobile. 2020-08-02 13:32 09:43 ~$ 12.72 link

$1.00 $1.01 99% 281 Ymwmhu 2020 New Fahsion Men Po.... mobile. 2020-08-02 13:32 08:33 ~$ 5.80 link

$4.00 $4.01 100% 1 Dildo Penis Clip Vibrator Nipp.... mobile. 2020-08-02 13:32 2020-08-02 ~$ 2.76 link

$2.00 $2.01 100% 658 Short Evening dress 2020  Appl.... mobile. 2020-08-02 13:32 09:43 ~$ 14.30 link

$1.00 $1.01 99% 4977 New Fashion Clothes Women Deni.... mobile. 2020-08-02 13:32 09:43 ~$ 9.38 link

$1.00 $1.01 99% 99955 Windbreaker for Men Jacket 202.... mobile. 2020-08-02 13:31 03:47 ~$ 1.29 x 5 link

$3.00 $10.00 30% 99 FUYIE Children's Day Gift DIY .... mobile. 2020-08-02 13:31 09:43 ~$ 0.01 x 1000 link

$1.00 $1.01 99% 9998 Leather Watch Strap Quick Rele.... mobile. 2020-08-02 13:31 09:43 ~$ 8.79 link

$1.00 $1.01 99% 492 Cycling Jersey 2020 Pro Team S.... mobile. 2020-08-02 13:31 09:43 ~$ 12.39 link

$1.00 $1.01 99% 498 BESTLYBUY Genuine 925 Sterling.... mobile. 2020-08-02 13:31 09:43 ~$ 0.08 link

$1.00 $3.00 33% 1000 Moisturizing Gloss Plumping Li.... mobile. 2020-08-02 13:31 09:43 ~$ 0.01 x 100 link

$1.00 $3.00 33% 47 50pcs Painted Round Wood Butto.... mobile. 2020-08-02 13:31 09:43 ~$ 0.59 link

$1.00 $1.01 99% 43 A Set Mountain Bicycle Repair .... mobile. 2020-08-02 13:31 09:43 ~$ 0.72 x 4 link

$2.00 $2.01 100% 19870 Virgin Hair Fertilizer Hair Gr.... mobile. 2020-08-02 13:31 09:42 ~$ 0.89 x 30 link

$1.00 $1.01 99% 279 New Summer Sport Suit Men Fash.... mobile. 2020-08-02 13:31 09:43 ~$ 9.28 link

$2.00 $2.01 100% 9983 2020 Summer New Arrive Women C.... mobile. 2020-08-02 13:31 20:03 ~$ 12.17 link

$1.00 $1.01 99% 972 Breathable Anti-sweat Anti-sli.... mobile. 2020-08-02 13:31 09:43 ~$ 1.35 link

$1.00 $1.01 99% 9982 Northwave Cycling Jersey Summe.... mobile. 2020-08-02 13:31 09:43 ~$ 12.10 link

$2.00 $2.01 100% 817 Long Sleeve Shirts Social Manh.... mobile. 2020-08-02 13:31 20:01 ~$ 5.69 link

$2.00 $2.01 100% 989 Punk Women Spliced Mesh Tank V.... mobile. 2020-08-02 13:31 20:07 ~$ 5.70 link

$1.00 $1.01 99% 478 Adult Games No Vibrator Sex To.... mobile. 2020-08-02 13:31 09:56 ~$ 1.00 link

$1.00 $1.01 99% 886 2020 Bluetooth Smart watch men.... mobile. 2020-08-02 13:31 09:54 ~$ 17.99 link

$2.00 $2.01 100% 88870 Free Delivery World Eco hair S.... mobile. 2020-08-02 13:31 09:56 ~$ 0.64 x 100 link

$1.00 $1.01 99% 50 Vamson Hard Travel Case for Go.... mobile. 2020-08-02 13:31 02:01 ~$ 1.57 link

$2.00 $2.01 100% 95 Cushioning black Sneakers Wome.... mobile. 2020-08-02 13:31 20:03 ~$ 10.09 link

$1.00 $1.01 99% 998 Spiderman Kids Cycling Set 202.... mobile. 2020-08-02 13:31 13:03 ~$ 6.97 link

$1.00 $1.01 99% 100 Tenis Mujer Sneakers Women Tra.... mobile. 2020-08-02 13:31 09:42 ~$ 12.98 link

$1.00 $1.01 99% 739 Original Unlocked Apple iphone.... mobile. 2020-08-02 13:31 2020-08-02 ~$ 24.20 link

$1.00 $2.00 50% 98 In Stock 2017 Hot Sale Multi C.... mobile. 2020-08-02 13:31 09:41 ~$ 9.00 link

$1.00 $1.01 99% 956 16 style Stock Blank Satin Sil.... mobile. 2020-08-02 13:30 20:05 ~$ 0.01 x 1200 link

$2.00 $2.01 100% 9876 HAPEDY Fashion Women Blouse Sh.... mobile. 2020-08-02 13:30 13:08 ~$ 5.90 link

$1.00 $1.01 99% 5825 Stretch Slipcovers Sofa Cover .... mobile. 2020-08-02 13:30 09:54 ~$ 4.99 link

$1.00 $1.01 99% 99997 Men Waterproof Genuine Leather.... mobile. 2020-08-02 13:30 09:42 ~$ 4.75 link

$1.00 $1.01 99% 44 2020 New EVA Hard Bag Cover Ca.... mobile. 2020-08-02 13:30 20:05 ~$ 5.98 link

$1.00 $1.01 99% 3 Spring Women's Long Sleeve Swe.... mobile. 2020-08-02 13:30 09:47 ~$ 14.45 link

$20.00 $20.01 100% 197 CHINSAIL CXP1530 cnc plasma cu.... mobile. 2020-08-02 13:30 01:56 ~$ 2.00 link

$2.00 $2.01 100% 1984 2020 Big Eyes 1970s Play Unise.... mobile. 2020-08-02 13:30 09:56 ~$ 31.33 link

$1.00 $1.01 99% 80 women shorts dance shorts Cott.... mobile. 2020-08-02 13:30 20:03 ~$ 4.65 link

$1.00 $1.01 99% 98 0-3 Years Old Baby Shoes Pink .... mobile. 2020-08-02 13:30 09:54 ~$ 13.58 link

$1.00 $1.01 99% 98 One Piece Bathing Suit for Wom.... mobile. 2020-08-02 13:30 20:07 ~$ 2.96 link

$1.00 $1.01 99% 989 Waterproof Smart Fitness IP68 .... mobile. 2020-08-02 13:30 09:53 ~$ 1.00 link

$1.00 $1.01 99% 1976 cycling jersey 2020 Men's Bike.... mobile. 2020-08-02 13:30 09:55 ~$ 11.59 link

$1.00 $1.01 99% 5742 2020 New Summer Women Paisley .... mobile. 2020-08-02 13:30 09:55 ~$ 2.79 link

$2.00 $2.01 100% 95 Tenis Masculino Men Sneakers B.... mobile. 2020-08-02 13:30 09:55 ~$ 8.99 link

$1.00 $1.01 99% 99918 8 Professional SPD Cleat Cycli.... mobile. 2020-08-02 13:30 09:55 ~$ 3.56 link

$1.00 $1.01 99% 98 Bridal Wedding Capes Veils Chi.... mobile. 2020-08-02 13:30 09:41 ~$ 4.04 link

$1.00 $1.01 99% 2991 Cactus flower desert plant suc.... mobile. 2020-08-02 13:30 09:53 ~$ 5.00 link

$2.00 $2.01 100% 884 Original New Oneplus 7T 7 T 8G.... mobile. 2020-08-02 13:30 19:32 ~$ 4.99 link

$1.00 $1.01 99% 995 Truelove Dog Harness Reflectiv.... mobile. 2020-08-02 13:30 09:53 ~$ 7.09 link

$1.00 $1.01 99% 975 Gwen Sweatshirt Jacket Advance.... mobile. 2020-08-02 13:30 20:03 ~$ 2.09 link

$1.00 $1.01 99% 996 2020 Hot Sale Kid's Motorcycle.... mobile. 2020-08-02 13:30 09:55 ~$ 5.15 link

$1.00 $1.01 99% 46 2019 Brand Kids Sneakers kids .... mobile. 2020-08-02 13:29 10:03 ~$ 9.07 link

$1.00 $1.01 99% 978 Summer Men Jacket Korean Men C.... mobile. 2020-08-02 13:29 09:50 ~$ 11.19 link

$1.00 $1.01 99% 94 Outdoor Hiking jacket Spring a.... mobile. 2020-08-02 13:29 09:55 ~$ 6.99 link

$1.00 $2.00 50% 47 2020 new fashion creative long.... mobile. 2020-08-02 13:29 2020-08-02 ~$ 1.14 link

$1.00 $1.01 99% 97 2020 New Bluetooth Earphone Sp.... mobile. 2020-08-02 13:29 07:27 ~$ 1.80 link

$1.00 $1.01 99% 79 5 Bouquets/lot 12 HeadsBundle .... mobile. 2020-08-02 13:29 10:03 ~$ 0.04 x 500 link

$1.00 $1.01 99% 196 Bendable Magnet Man Toys fun f.... mobile. 2020-08-02 13:29 20:02 ~$ 0.53 link

$1.00 $1.01 99% 396 20 Inch Reborn Dolls 50cm Soft.... mobile. 2020-08-02 13:29 10:03 ~$ 2.10 x 5 link

$1.00 $1.01 99% 63 5pair women Cotton cartoon soc.... mobile. 2020-08-02 13:29 10:03 ~$ 1.24 x 5 link

$1.00 $1.01 99% 190 Men's Sets New Summer Suit Qui.... mobile. 2020-08-02 13:29 20:05 ~$ 7.50 link

$2.00 $2.01 100% 49 Myriwell 3D Printing Pen Graff.... mobile. 2020-08-02 13:29 13:07 ~$ 54.60 link

$2.00 $2.01 100% 49 Myriwell 3D Pens Speed Adjust .... mobile. 2020-08-02 13:29 20:07 ~$ 21.86 link

$3.00 $3.01 100% 49 10.1inch 2560×1600 IPS Portab.... mobile. 2020-08-02 13:29 09:55 nie zeskanowano
$1.00 $1.01 99% 50 Newest Bluetooth Earphone Wire.... mobile. 2020-08-02 13:29 2020-08-02 ~$ 8.91 link

$1.00 $1.01 99% 297 Ymwmhu 5XL Dresses Women Sleev.... mobile. 2020-08-02 13:29 10:33 ~$ 4.98 link

$2.00 $2.01 100% 308 2020 Spiderman Kids Slippers F.... mobile. 2020-08-02 13:29 10:03 ~$ 3.54 link

$1.00 $1.01 99% 974 Cycling Jersey Set  Maillot Ro.... mobile. 2020-08-02 13:29 10:02 ~$ 15.04 link

$10.00 $30.00 33% 9998 Little 7 Options Garnet Morgan.... mobile. 2020-08-02 13:29 09:55 ~$ 1.88 link

$1.00 $1.01 99% 137 Size 29-40 Glowing Sneakers US.... mobile. 2020-08-02 13:29 10:02 ~$ 10.72 link

$2.00 $2.01 100% 9967 JOGLANE Girl PU leather shoes .... mobile. 2020-08-02 13:29 10:02 ~$ 2.80 link

$1.00 $1.01 99% 25 2x T10 W5W LED 12V Blub Car in.... mobile. 2020-08-02 13:29 09:41 ~$ 0.12 x 10 link

$1.00 $1.01 99% 62 Bicycle water bottle holder 36.... mobile. 2020-08-02 13:29 10:02 ~$ 5.30 link

$1.00 $1.01 99% 1930 Summer Middle Children Sport S.... mobile. 2020-08-02 13:29 20:07 ~$ 9.91 link

$100.00 $199.00 50% 189 Baby Throwing Ball With Light .... mobile. 2020-08-02 13:29 13:07 ~$ 0.09 x 50 link

$2.00 $2.01 100% 999 For Tesla Model 3 Accessories .... mobile. 2020-08-02 13:29 10:33 ~$ 9.99 link

$2.00 $2.01 100% 997 Autumn winter bandana print no.... mobile. 2020-08-02 13:29 10:02 ~$ 5.87 link

$1.00 $1.01 99% 156 (2 piece/set) high quality pro.... mobile. 2020-08-02 13:29 10:33 ~$ 0.04 link

$1.00 $1.01 99% 994 JIANGLUN New  for HP Elitebook.... mobile. 2020-08-02 13:29 09:55 ~$ 1.17 x 5 link

$1.00 $1.01 99% 989 Bbincar Car Rearview Mirror Ra.... mobile. 2020-08-02 13:29 10:03 ~$ 0.11 x 12 link

$1.00 $3.00 33% 796 New Design manicuie Wall Decal.... mobile. 2020-08-02 13:28 10:02 ~$ 0.70 link

$2.00 $2.01 100% 34 Ins Tapestry Wall Hanging Clot.... mobile. 2020-08-02 13:28 20:03 ~$ 5.80 link

$1.00 $1.01 99% 19 ALMIGHTY EAGLE Cigarette pen P.... mobile. 2020-08-02 13:28 07:03 ~$ 1.54 link

$1.00 $1.01 99% 497 3D 4D Carbon/ Matte/ Glossy Bl.... mobile. 2020-08-02 13:28 10:33 ~$ 1.00 link

$5.60 $6.72 83% 879 2019 Xiaomi Mi Electric Scoote.... mobile. 2020-08-02 13:28 10:02 ~$ 11.20 link

$1.00 $1.01 99% 912 Ultrasonic Facial Skin Scrubbe.... mobile. 2020-08-02 13:28 09:55 ~$ 1.01 link

$1.00 $1.01 99% 991 Men's Cycling Jersey Summer Sh.... mobile. 2020-08-02 13:28 10:01 ~$ 15.04 link

$2.00 $2.01 100% 986 Punk Vintage Tattered Leggings.... mobile. 2020-08-02 13:28 10:01 ~$ 6.65 link

$1.00 $1.01 99% 990 Fit For Mitsubishi Eclipse Cro.... mobile. 2020-08-02 13:28 10:03 ~$ 0.07 x 12 link

$1.00 $1.01 99% 951 For Peugeot 308 2014 2015 High.... mobile. 2020-08-02 13:28 10:33 ~$ 4.50 link

$1.00 $1.01 99% 196 45 mm Mid Pipe for 2006-2019 Y.... mobile. 2020-08-02 13:28 10:03 ~$ 2.70 link

$2.00 $2.01 100% 59999 Literary Boho Dress For Women .... mobile. 2020-08-02 13:28 10:02 ~$ 18.01 link

$1.00 $1.01 99% 9993 1pcs 9 car headrest monitor p.... mobile. 2020-08-02 13:28 10:02 ~$ 12.00 link

$2.00 $2.01 100% 982 Anti speed camera detecting ra.... mobile. 2020-08-02 13:28 20:07 ~$ 5.99 link

$1.00 $3.00 33% 40 1PCS For Sega 16 MD game card .... mobile. 2020-08-02 13:28 10:01 ~$ 0.01 link

$1.00 $1.01 99% 31 Waterproof 304 Stainless steel.... mobile. 2020-08-02 13:28 01:56 ~$ 0.11 link

$1.00 $1.01 99% 44 Fitness Women Yoga Set Seamles.... mobile. 2020-08-02 13:28 10:33 ~$ 4.99 link

$1.00 $1.01 99% 197 Croatia Flag Winter Cycling Je.... mobile. 2020-08-02 13:28 20:07 ~$ 9.20 link

$1.00 $1.01 99% 9977 Bicycle Rear Derailleur Thru A.... mobile. 2020-08-02 13:28 20:07 ~$ 0.10 link

$2.00 $2.01 100% 40 Full Carbon Fiber Motorcycle A.... mobile. 2020-08-02 13:28 10:02 ~$ 33.93 link

$1.00 $1.01 99% 955 UBUYUWANT Fake Carbon Fiber Re.... mobile. 2020-08-02 13:28 10:02 ~$ 4.75 link

$1.00 $1.01 99% 191 Universal Modified Motorcycle .... mobile. 2020-08-02 13:28 10:33 ~$ 0.50 x 50 link

$1.00 $1.01 99% 499 Universal Motorcycle Modified .... mobile. 2020-08-02 13:28 10:02 ~$ 0.20 x 50 link

$1.00 $1.01 99% 29927 7JHH Pink Linen Short Straight.... mobile. 2020-08-02 13:28 09:55 ~$ 15.54 link

$2.00 $2.01 100% 190 Girls Sandals Shoes For Childr.... mobile. 2020-08-02 13:28 10:33 ~$ 1.58 link

$1.00 $1.01 99% 1984 5 Pairs Springs Motorcycle Exh.... mobile. 2020-08-02 13:28 20:07 ~$ 1.00 link

$1.00 $1.01 99% 980 Car Styling Pu Leather String .... mobile. 2020-08-02 13:28 10:02 ~$ 0.07 x 12 link

$2.00 $2.01 100% 870 New Global Original Version On.... mobile. 2020-08-02 13:28 13:03 ~$ 4.99 link

$3.00 $3.01 100% 178 Waterproof Briefs Leak Proof M.... mobile. 2020-08-02 13:28 07:26 ~$ 6.11 link

$1.00 $1.01 99% 2397 JJRC JX01 3CH Altitude Hold RC.... mobile. 2020-08-02 13:28 10:01 ~$ 0.74 x 10 link

$1.00 $1.01 99% 92 Twerking Sports Toy Gag Funny .... mobile. 2020-08-02 13:28 10:01 ~$ 0.04 x 100 link

$1.00 $1.01 99% 92 STERHEN Air Purifier Ozone Gen.... mobile. 2020-08-02 13:28 10:33 ~$ 2.64 link

$1.00 $3.00 33% 12 3.8mm and 4.5mm Gamebit Hex To.... mobile. 2020-08-02 13:28 2020-08-02 ~$ 0.04 link

$2.00 $2.01 100% 90 XIFER Autumn and Winter Couple.... mobile. 2020-08-02 13:28 20:02 ~$ 13.66 link

$1.00 $1.01 99% 9937 1pcs Ethernet Adapter USB to R.... mobile. 2020-08-02 13:28 09:54 ~$ 0.95 link

$2.00 $5.00 40% 192 Butterflies over flowers (8) c.... mobile. 2020-08-02 13:28 10:01 ~$ 3.99 link

$1.00 $1.01 99% 157 Toy Cloth Books Interactive Se.... mobile. 2020-08-02 13:28 10:01 ~$ 0.77 link

$3.00 $3.01 100% 41 2019 New Sheep Shearing Winter.... mobile. 2020-08-02 13:28 13:03 ~$ 29.26 link

$2.00 $5.00 40% 987 Disney Girls Tights Pink Dot C.... mobile. 2020-08-02 13:28 20:07 ~$ 0.71 x 5 link

$1.00 $1.01 99% 593 Child Reborn Full Silicone Reb.... mobile. 2020-08-02 13:28 10:01 ~$ 7.10 link

$1.00 $1.01 99% 1998 Children's T-shirts Knitted wi.... mobile. 2020-08-02 13:28 10:01 ~$ 8.83 link

$2.00 $2.01 100% 18 Llano Notebook Radiator Notebo.... mobile. 2020-08-02 13:28 20:06 ~$ 1.00 link

$2.24 $2.25 100% 9969 16 pcs 364XL Ink Cartridge Com.... mobile. 2020-08-02 13:28 09:54 ~$ 0.82 x 30 link

$2.00 $2.01 100% 985 Top Quality Linen Dresses Wome.... mobile. 2020-08-02 13:28 10:01 ~$ 0.90 link

$1.00 $1.01 99% 97 GAKA Short Bob Wig White Synth.... mobile. 2020-08-02 13:28 10:33 ~$ 9.80 link

$1.00 $1.01 99% 99976 For 96-00 Civic 2/3DR F1 Style.... mobile. 2020-08-02 13:28 10:01 ~$ 0.92 x 10 link

$1.00 $1.01 99% 9998 Melody Blue Workout Shorts Wom.... mobile. 2020-08-02 13:27 10:00 ~$ 25.80 link

$2.00 $5.00 40% 389 Cotton Baby Tights For Girls S.... mobile. 2020-08-02 13:27 10:01 ~$ 0.85 x 5 link

$2.00 $2.01 100% 485 Universal Car Snorkel Inlet He.... mobile. 2020-08-02 13:27 10:01 ~$ 0.01 link

$2.00 $2.01 100% 992 Car Styling Angel Eye Fog Lamp.... mobile. 2020-08-02 13:27 10:01 ~$ 0.82 link

$1.00 $1.01 99% 472 Pocket Multi Tool Folding Plie.... mobile. 2020-08-02 13:27 10:01 ~$ 4.65 link

$3.00 $3.01 100% 494 925 Sterling Silver Huge ! 8.3.... mobile. 2020-08-02 13:27 09:53 ~$ 13.05 link

$1.00 $1.01 99% 64 Newest luxury vintage jewelry .... mobile. 2020-08-02 13:27 09:53 ~$ 0.50 link

$1.00 $3.00 33% 74 Women Scalloped Textured High .... mobile. 2020-08-02 13:27 01:32 ~$ 0.28 x 24 link

$3.00 $10.00 30% 82 SATA Cable 3.0 to Hard Disk SS.... mobile. 2020-08-02 13:27 20:06 ~$ 1.14 x 2 link

$1.00 $1.01 99% 8178 Free shipping MR577031 100798-.... mobile. 2020-08-02 13:27 09:38 ~$ 0.14 link

$5.00 $15.00 33% 47 HotMeiNi Car Styling Car Stick.... mobile. 2020-08-02 13:27 10:33 ~$ 0.72 x 50 link

$1.00 $2.00 50% 84 2 in 1 CL2 Tester Water Qualit.... mobile. 2020-08-02 13:27 10:33 ~$ 0.98 link

$1.00 $1.01 99% 91 zocept Winter Thick V-Neck Men.... mobile. 2020-08-02 13:27 20:01 ~$ 4.38 link

$2.00 $2.01 100% 1972 LUCKY FF1108-1 Portable Fish F.... mobile. 2020-08-02 13:27 09:53 ~$ 19.90 link

$1.00 $1.01 99% 37 2020 New Summer Baby Boys PP P.... mobile. 2020-08-02 13:27 20:07 ~$ 1.99 x 10 link

$1.00 $1.01 99% 5 HPCHCJHM Korea night View Soft.... mobile. 2020-08-02 13:27 09:48 ~$ 0.98 link

$1.00 $1.01 99% 996 JIANGLUN Bluetooth built-in la.... mobile. 2020-08-02 13:27 20:03 ~$ 0.08 x 150 link

$1.00 $1.01 99% 468 2020 STRAVA Pro Team Long Slee.... mobile. 2020-08-02 13:27 10:00 ~$ 12.39 link

$1.00 $1.01 99% 99977 14''(350mm)ND Steering wheel l.... mobile. 2020-08-02 13:27 10:01 ~$ 0.84 x 10 link

$5.00 $5.01 100% 8872 2020 Black Men USAF Pilot Leat.... mobile. 2020-08-02 13:27 09:48 ~$ 149.99 link

$1.00 $1.01 99% 997 Easehold Rechargeable 3 Color .... mobile. 2020-08-02 13:27 09:54 ~$ 34.22 link

$3.00 $3.01 100% 9986 AW 10'' 12'' T-613 Short Bob L.... mobile. 2020-08-02 13:27 20:02 ~$ 11.99 link

$1.00 $1.01 99% 995 Construction Indestructible Sa.... mobile. 2020-08-02 13:27 09:53 ~$ 3.99 link

$5.00 $15.00 33% 47 HotMeiNi 13cm x 6.3cm Waterpro.... mobile. 2020-08-02 13:27 09:37 ~$ 0.82 link

$3.00 $3.01 100% 94 Women Poncho Long Raincoat Lad.... mobile. 2020-08-02 13:27 10:00 ~$ 7.39 x 10 link

$3.00 $3.01 100% 94 2018 New Arrival Women One-pie.... mobile. 2020-08-02 13:27 10:33 ~$ 3.35 x 12 link

$5.00 $15.00 33% 286 Cotton Women Socks Brand Plaid.... mobile. 2020-08-02 13:27 19:33 ~$ 0.89 link

$5.00 $9.00 56% 172 Boys Girls Fashion Sneaker New.... mobile. 2020-08-02 13:27 2020-08-02 ~$ 8.24 link

$1.00 $1.01 99% 993 LOCAL LION 5L Women Men Marath.... mobile. 2020-08-02 13:27 10:00 ~$ 4.99 link

$1.00 $1.01 99% 98 Facial Spray Nano Moisture Met.... mobile. 2020-08-02 13:27 02:32 ~$ 8.79 link

$2.00 $2.01 100% 982 Selsun Blue Dandruff Medicated.... mobile. 2020-08-02 13:27 20:02 ~$ 6.63 x 6 link

$1.00 $1.01 99% 49996 Maillot De Bain Femme 2020 One.... mobile. 2020-08-02 13:27 20:05 ~$ 16.50 link

$1.00 $2.00 50% 9964 Vacuum sealer Red Wine Champag.... mobile. 2020-08-02 13:27 10:00 ~$ 0.81 link

$2.00 $2.01 100% 4998 Wigeinius Water Curly Human Ha.... mobile. 2020-08-02 13:27 09:53 ~$ 34.99 link

$5.00 $5.01 100% 1986 Long Sleeves High Neck Muslim .... mobile. 2020-08-02 13:27 09:48 ~$ 69.52 link

$2.00 $2.01 100% 1992 IvyNa Shoulder Lenght Short Bo.... mobile. 2020-08-02 13:27 09:53 ~$ 19.68 link

$1.00 $1.01 99% 298 Brand Girls Leather Shoes High.... mobile. 2020-08-02 13:27 10:00 ~$ 8.92 link

$1.00 $1.01 99% 2473 Massager for Neck and Back Sho.... mobile. 2020-08-02 13:27 20:01 ~$ 22.51 link

$1.00 $1.01 99% 96 Kids Dresses For Girls Elsa Dr.... mobile. 2020-08-02 13:27 20:06 ~$ 8.32 link

$4.00 $4.01 100% 9961 Peruvian Straight Short Bob Wi.... mobile. 2020-08-02 13:27 07:30 ~$ 1.00 link

$2.00 $2.01 100% 95 AVEJOICE Silky Straight Wig wi.... mobile. 2020-08-02 13:27 09:53 ~$ 5.00 link

$3.00 $3.01 100% 959 Ball Shaped Mini Glass Bottle .... mobile. 2020-08-02 13:26 20:02 ~$ 0.13 x 100 link

$1.00 $1.01 99% 39 2020 Newborn Mickey Minnie Bab.... mobile. 2020-08-02 13:26 02:00 ~$ 6.58 link

$1.00 $1.01 99% 997 Clearance USB Air Humidifier 3.... mobile. 2020-08-02 13:26 10:00 ~$ 1.00 link

$1.00 $1.01 99% 1918 WLtoys V912 Single Blade RC Ai.... mobile. 2020-08-02 13:26 10:00 ~$ 0.79 link

$2.00 $2.01 100% 40 LMDTK  New 3 CELLS laptop batt.... mobile. 2020-08-02 13:26 09:53 ~$ 14.43 link

$2.00 $2.01 100% 4801 Russian warehouse! FFC1108-1 A.... mobile. 2020-08-02 13:26 09:53 ~$ 10.00 link

$1.00 $1.01 99% 2913 2019 Men Running Shirts Quick .... mobile. 2020-08-02 13:26 09:53 ~$ 7.22 link

$2.00 $2.01 100% 192 60A3EC Stepper Servo Motor 3.0.... mobile. 2020-08-02 13:26 10:00 ~$ 4.00 link

$2.00 $2.01 100% 39 LMDTK  New 6cells laptop batte.... mobile. 2020-08-02 13:26 09:53 ~$ 15.09 link

$2.00 $2.01 100% 473 2000PCS Organic Pine Pollen Po.... mobile. 2020-08-02 13:26 09:53 nie zeskanowano
$2.00 $2.01 100% 473 2000PCS Organic Pine Pollen Po.... mobile. 2020-08-02 13:26 09:53 nie zeskanowano
$2.00 $2.01 100% 97 Newness Synthetic Lace Front B.... mobile. 2020-08-02 13:26 09:53 ~$ 0.50 link

$1.00 $1.01 99% 2983 New Couple Models Shoes For Me.... mobile. 2020-08-02 13:26 20:05 ~$ 8.28 link

$1.00 $1.01 99% 1984 Fast shipping Small GPS Tracke.... mobile. 2020-08-02 13:26 10:00 ~$ 1.47 link

$4.00 $4.01 100% 19982 6M Extension Cable For BMW/Ben.... mobile. 2020-08-02 13:26 20:07 ~$ 12.42 link

$3.00 $10.00 30% 48 Earth Dream Gaming Mouse Pad a.... mobile. 2020-08-02 13:26 09:53 ~$ 5.88 link

$1.00 $1.01 99% 96 Neitsi Silicone Nano Ring Bead.... mobile. 2020-08-02 13:26 09:53 ~$ 0.01 x 1000 link

$2.00 $2.01 100% 979 Ready-to-wear Middle Parted Sw.... mobile. 2020-08-02 13:26 10:32 ~$ 17.99 link

$2.00 $2.01 100% 485 13x4 Lace Front Human Hair Wig.... mobile. 2020-08-02 13:26 09:53 ~$ 45.50 link

$1.00 $1.01 99% 979 IMEI active for GPS trackers o.... mobile. 2020-08-02 13:26 10:00 ~$ 0.08 link

$1.00 $1.01 99% 991 Leadcool Smart-tv Box Android .... mobile. 2020-08-02 13:26 09:51 ~$ 7.44 link

$8.00 $8.01 100% 9983 Souria-Velasting 22 inches Bla.... mobile. 2020-08-02 13:26 20:05 ~$ 1.00 link

$1.00 $1.01 99% 75 Claladoudou 12-16CM Kids Sanda.... mobile. 2020-08-02 13:26 09:51 ~$ 7.55 link

$1.00 $1.01 99% 142 UGOOS X3 CUBE TV Box Amlogic S.... mobile. 2020-08-02 13:26 09:51 ~$ 20.00 link

$1.00 $1.01 99% 139 Double LED 4 Gang Car Marine S.... mobile. 2020-08-02 13:26 09:36 ~$ 1.96 link

$3.00 $3.01 100% 9909 Bob Lace Front Wigs Full Lace .... mobile. 2020-08-02 13:26 09:53 ~$ 1.00 link

$2.00 $2.01 100% 999 Premium quality 12V-24V Car Ci.... mobile. 2020-08-02 13:26 09:36 ~$ 29.55 link

$1.00 $3.00 33% 14 Ethernet Cable High Speed RJ45.... mobile. 2020-08-02 13:26 10:33 ~$ 0.01 link

$1.00 $1.01 99% 19963 110mm*300m Thermal Printer Usi.... mobile. 2020-08-02 13:26 09:53 ~$ 0.01 x 100 link

$2.00 $2.01 100% 2 LMDTK New laptop battery for D.... mobile. 2020-08-02 13:26 13:03 ~$ 8.24 link

$1.00 $1.01 99% 61 ZONAN Tuya Smart Life Mini 108.... mobile. 2020-08-02 13:26 13:02 ~$ 6.32 link

$1.00 $1.01 99% 1972 V1 Small mini size plastic NO .... mobile. 2020-08-02 13:26 09:52 ~$ 0.50 x 10 link

$6.00 $6.01 100% 2646 STQ 2020 Autumn Women Flats Sa.... mobile. 2020-08-02 12:02 07:50 ~$ 9.34 link

$1.00 $1.01 99% 987 Ebike Throttle Handle 20X Righ.... mobile. 2020-08-02 11:31 20:07 ~$ 0.70 link

$1.00 $1.01 99% 94 High Heels Shoes Woman Pumps B.... mobile. 2020-08-02 11:31 20:07 ~$ 21.00 link

$5.00 $5.01 100% 9990 USB Women Backpack Big  School.... mobile. 2020-08-02 11:31 20:07 ~$ 15.10 link

$1.00 $1.01 99% 9975 Four Ways Stretchable Meldy Bu.... mobile. 2020-08-02 11:30 20:07 ~$ 25.99 link

$1.00 $1.01 99% 9972 100%Original New HKE HRS3-S-DC.... mobile. 2020-08-02 10:37 09:47 ~$ 0.11 x 10 link

$8.00 $8.01 100% 1577 2020 Summer Sport Children Sho.... mobile. 2020-08-02 10:01 05:56 ~$ 6.58 link

$1.36 $1.37 99% 177 Laser distance meter Deko dklr.... mobile. 2020-08-02 09:32 2020-08-02 nie zeskanowano
$1.36 $1.37 99% 177 Laser distance meter Deko dklr.... mobile. 2020-08-02 09:32 2020-08-02 nie zeskanowano
$2.00 $2.01 100% 6162 Cubot Quest Sports Rugged Phon.... mobile. 2020-08-02 09:04 20:09 ~$ 47.85 link

$1.00 $1.01 99% 95 200cm Long 5mm Diameter Steel .... mobile. 2020-08-02 09:03 09:53 ~$ 0.94 link

$27.20 $27.21 100% 151 Hisses for curling hair Riwa r.... mobile. 2020-08-02 09:00 2020-08-02 nie zeskanowano
$27.20 $27.21 100% 151 Hisses for curling hair Riwa r.... mobile. 2020-08-02 09:00 2020-08-02 nie zeskanowano
$1.00 $1.01 99% 279 GOPLUS 2020 New Sexy Strapless.... mobile. 2020-08-02 08:33 20:07 ~$ 0.95 link

$28.00 $38.00 74% 1110 French Fashion Printed Box Sho.... mobile. 2020-08-02 08:18 09:54 ~$ 15.60 link

$1.00 $1.01 99% 2985 Winter Fashion Women Home Slip.... mobile. 2020-08-02 08:15 2020-08-02 ~$ 2.56 link

$1.00 $1.01 99% 948 For Cadillac ATS 2013 2014 201.... mobile. 2020-08-02 08:15 10:03 ~$ 5.38 link

$1.00 $1.01 99% 9992 My-Love Women Sandals Wedges F.... mobile. 2020-08-02 08:07 20:06 ~$ 1.24 link

$1.00 $1.01 99% 90 White Sneakers Vulcanized Shoe.... mobile. 2020-08-02 08:06 2020-08-02 ~$ 18.00 link

$2.00 $2.01 100% 944 VAIR MUDO 2020 Fashion Summer .... mobile. 2020-08-02 08:06 12:06 ~$ 0.01 link

$1.00 $1.01 99% 265 EXCELSIOR Women's Bag Crossbod.... mobile. 2020-08-02 08:06 10:00 ~$ 5.58 link

$5.00 $5.01 100% 291 Gladiator Sandals for Men Blac.... mobile. 2020-08-02 08:06 09:48 ~$ 28.04 link

$1.00 $1.01 99% 552 Adjustable Mounting Box Intern.... mobile. 2020-08-02 08:05 20:06 ~$ 1.89 link

$3.00 $3.01 100% 9997 HD Medical Surgical Industrial.... mobile. 2020-08-02 08:05 09:47 ~$ 49.00 link

$1.00 $1.01 99% 18297 Original Blackberry Q20 Classi.... mobile. 2020-08-02 08:05 10:00 ~$ 0.10 link

$1.00 $1.01 99% 98 Genuine 925 Sterling Silver Gl.... mobile. 2020-08-02 08:05 19:33 ~$ 6.15 link

$1.00 $1.01 99% 49992 kmeioo classic jeweled flat sh.... mobile. 2020-08-02 08:03 10:03 ~$ 19.99 link

$5.00 $15.00 33% 46 HotMeiNi 12cm X 12cm Car Styli.... mobile. 2020-08-02 08:03 10:02 ~$ 0.54 link

$1.00 $1.01 99% 477 TK905B 10000Mah New TKSTAR Ori.... mobile. 2020-08-02 08:03 09:36 ~$ 1.47 x 20 link

$1.00 $1.01 99% 197 Customized S~6XL New fashion m.... mobile. 2020-08-02 08:03 10:00 ~$ 1.62 link

$1.00 $1.01 99% 500 Children's Short-Sleeved T-shi.... mobile. 2020-08-02 08:03 09:54 ~$ 7.20 link

$1.00 $1.01 99% 996 Talking Repeat Duck Plush Toys.... mobile. 2020-08-02 08:03 10:03 ~$ 0.99 link

$1.00 $1.01 99% 197 LCD Part no LTM10C209H for 10..... mobile. 2020-08-02 08:03 20:02 ~$ 5.20 x 10 link

$1.00 $1.01 99% 10 Four color eye shadow disc fem.... mobile. 2020-08-02 08:03 09:43 ~$ 0.99 link

$1.00 $1.01 99% 295 Herislim Satin Robe And Gown S.... mobile. 2020-08-02 08:03 09:43 ~$ 8.40 link

$1.00 $3.00 33% 798 Cute Adventurer Auto Sticker V....